sensor_id;sensor_type;location;lat;lon;timestamp;pressure;altitude;pressure_sealevel;temperature;humidity
61697;BME280;47610;52.252;20.922;2022-10-19T00:05:19;100760.91;;;12.21;83.50
61697;BME280;47610;52.252;20.922;2022-10-19T00:10:41;100754.67;;;12.14;83.55
61697;BME280;47610;52.252;20.922;2022-10-19T00:16:09;100753.23;;;12.06;83.65
61697;BME280;47610;52.252;20.922;2022-10-19T00:21:36;100754.19;;;11.96;83.14
61697;BME280;47610;52.252;20.922;2022-10-19T00:26:59;100750.69;;;11.88;83.28
61697;BME280;47610;52.252;20.922;2022-10-19T00:32:22;100747.69;;;11.79;82.91
61697;BME280;47610;52.252;20.922;2022-10-19T00:37:44;100744.98;;;11.68;82.64
61697;BME280;47610;52.252;20.922;2022-10-19T00:43:11;100744.80;;;11.61;83.04
61697;BME280;47610;52.252;20.922;2022-10-19T00:48:33;100742.02;;;11.53;82.66
61697;BME280;47610;52.252;20.922;2022-10-19T00:53:59;100744.99;;;11.46;82.87
61697;BME280;47610;52.252;20.922;2022-10-19T00:59:23;100744.10;;;11.41;82.76
61697;BME280;47610;52.252;20.922;2022-10-19T01:04:49;100740.83;;;11.37;82.69
61697;BME280;47610;52.252;20.922;2022-10-19T01:10:12;100738.46;;;11.33;82.79
61697;BME280;47610;52.252;20.922;2022-10-19T01:15:40;100732.77;;;11.29;83.42
61697;BME280;47610;52.252;20.922;2022-10-19T01:21:19;100723.66;;;11.27;83.74
61697;BME280;47610;52.252;20.922;2022-10-19T01:33:01;100720.98;;;11.29;84.46
61697;BME280;47610;52.252;20.922;2022-10-19T01:38:36;100714.32;;;11.31;84.21
61697;BME280;47610;52.252;20.922;2022-10-19T01:44:05;100704.50;;;11.29;83.99
61697;BME280;47610;52.252;20.922;2022-10-19T01:49:35;100701.52;;;11.26;83.76
61697;BME280;47610;52.252;20.922;2022-10-19T01:55:04;100700.29;;;11.21;83.78
61697;BME280;47610;52.252;20.922;2022-10-19T02:00:27;100690.45;;;11.12;83.99
61697;BME280;47610;52.252;20.922;2022-10-19T02:05:52;100692.28;;;11.13;83.89
61697;BME280;47610;52.252;20.922;2022-10-19T02:11:16;100686.16;;;11.14;83.46
61697;BME280;47610;52.252;20.922;2022-10-19T02:16:42;100685.45;;;11.10;83.52
61697;BME280;47610;52.252;20.922;2022-10-19T02:22:05;100682.85;;;11.08;83.66
61697;BME280;47610;52.252;20.922;2022-10-19T02:27:29;100676.90;;;11.07;83.67
61697;BME280;47610;52.252;20.922;2022-10-19T02:32:50;100679.48;;;11.07;83.83
61697;BME280;47610;52.252;20.922;2022-10-19T02:38:17;100672.43;;;11.07;83.72
61697;BME280;47610;52.252;20.922;2022-10-19T02:43:42;100669.34;;;11.05;83.38
61697;BME280;47610;52.252;20.922;2022-10-19T02:49:09;100667.13;;;11.02;83.35
61697;BME280;47610;52.252;20.922;2022-10-19T02:54:34;100669.37;;;10.95;83.59
61697;BME280;47610;52.252;20.922;2022-10-19T02:59:57;100667.75;;;10.87;83.27
61697;BME280;47610;52.252;20.922;2022-10-19T03:05:19;100661.45;;;10.80;83.12
61697;BME280;47610;52.252;20.922;2022-10-19T03:10:42;100664.18;;;10.74;83.60
61697;BME280;47610;52.252;20.922;2022-10-19T03:16:12;100660.42;;;10.68;83.39
61697;BME280;47610;52.252;20.922;2022-10-19T03:21:35;100653.23;;;10.63;83.72
61697;BME280;47610;52.252;20.922;2022-10-19T03:26:57;100654.49;;;10.60;83.44
61697;BME280;47610;52.252;20.922;2022-10-19T03:32:19;100654.16;;;10.59;83.74
61697;BME280;47610;52.252;20.922;2022-10-19T03:37:41;100650.86;;;10.59;83.54
61697;BME280;47610;52.252;20.922;2022-10-19T03:43:04;100642.82;;;10.58;83.67
61697;BME280;47610;52.252;20.922;2022-10-19T03:48:27;100644.52;;;10.60;83.42
61697;BME280;47610;52.252;20.922;2022-10-19T03:53:52;100640.95;;;10.58;83.61
61697;BME280;47610;52.252;20.922;2022-10-19T03:59:15;100636.86;;;10.57;83.35
61697;BME280;47610;52.252;20.922;2022-10-19T04:04:38;100636.97;;;10.55;83.35
61697;BME280;47610;52.252;20.922;2022-10-19T04:10:00;100638.73;;;10.57;83.63
61697;BME280;47610;52.252;20.922;2022-10-19T04:15:22;100637.54;;;10.60;83.02
61697;BME280;47610;52.252;20.922;2022-10-19T04:20:45;100633.41;;;10.63;83.17
61697;BME280;47610;52.252;20.922;2022-10-19T04:26:08;100634.02;;;10.62;82.95
61697;BME280;47610;52.252;20.922;2022-10-19T04:31:31;100631.92;;;10.63;82.74
61697;BME280;47610;52.252;20.922;2022-10-19T04:36:54;100629.40;;;10.64;82.55
61697;BME280;47610;52.252;20.922;2022-10-19T04:42:17;100625.77;;;10.65;82.24
61697;BME280;47610;52.252;20.922;2022-10-19T04:47:39;100619.39;;;10.66;82.30
61697;BME280;47610;52.252;20.922;2022-10-19T04:53:02;100611.13;;;10.68;82.05
61697;BME280;47610;52.252;20.922;2022-10-19T04:58:24;100604.31;;;10.69;81.85
61697;BME280;47610;52.252;20.922;2022-10-19T05:03:47;100605.47;;;10.71;81.94
61697;BME280;47610;52.252;20.922;2022-10-19T05:09:13;100607.29;;;10.72;81.71
61697;BME280;47610;52.252;20.922;2022-10-19T05:14:35;100608.27;;;10.73;81.51
61697;BME280;47610;52.252;20.922;2022-10-19T05:19:57;100610.65;;;10.73;81.16
61697;BME280;47610;52.252;20.922;2022-10-19T05:25:19;100611.09;;;10.73;80.93
61697;BME280;47610;52.252;20.922;2022-10-19T05:30:42;100614.29;;;10.74;80.69
61697;BME280;47610;52.252;20.922;2022-10-19T05:36:16;100612.41;;;10.72;80.63
61697;BME280;47610;52.252;20.922;2022-10-19T05:41:41;100618.96;;;10.76;80.56
61697;BME280;47610;52.252;20.922;2022-10-19T05:47:05;100622.39;;;10.78;80.36
61697;BME280;47610;52.252;20.922;2022-10-19T05:52:27;100617.55;;;10.81;79.91
61697;BME280;47610;52.252;20.922;2022-10-19T05:57:50;100612.12;;;10.86;79.41
61697;BME280;47610;52.252;20.922;2022-10-19T06:03:12;100606.40;;;10.89;79.29
61697;BME280;47610;52.252;20.922;2022-10-19T06:08:35;100609.16;;;10.91;79.30
61697;BME280;47610;52.252;20.922;2022-10-19T06:14:00;100611.42;;;10.96;79.15
61697;BME280;47610;52.252;20.922;2022-10-19T06:19:22;100613.98;;;11.03;79.09
61697;BME280;47610;52.252;20.922;2022-10-19T06:24:45;100607.91;;;11.13;78.73
61697;BME280;47610;52.252;20.922;2022-10-19T06:30:10;100617.85;;;11.15;78.64
61697;BME280;47610;52.252;20.922;2022-10-19T06:35:31;100617.89;;;11.08;78.66
61697;BME280;47610;52.252;20.922;2022-10-19T06:40:54;100617.02;;;11.16;78.69
61697;BME280;47610;52.252;20.922;2022-10-19T06:46:22;100614.98;;;11.21;79.01
61697;BME280;47610;52.252;20.922;2022-10-19T06:51:45;100616.04;;;11.29;78.74
61697;BME280;47610;52.252;20.922;2022-10-19T06:57:07;100614.77;;;11.39;78.61
61697;BME280;47610;52.252;20.922;2022-10-19T07:02:28;100620.55;;;11.38;78.33
61697;BME280;47610;52.252;20.922;2022-10-19T07:07:51;100617.86;;;11.32;78.11
61697;BME280;47610;52.252;20.922;2022-10-19T07:13:12;100620.83;;;11.32;78.33
61697;BME280;47610;52.252;20.922;2022-10-19T07:18:35;100617.48;;;11.50;78.14
61697;BME280;47610;52.252;20.922;2022-10-19T07:23:58;100620.39;;;11.73;77.13
61697;BME280;47610;52.252;20.922;2022-10-19T07:29:21;100621.47;;;11.99;76.63
61697;BME280;47610;52.252;20.922;2022-10-19T07:34:43;100613.95;;;12.41;76.00
61697;BME280;47610;52.252;20.922;2022-10-19T07:40:08;100614.06;;;12.53;74.82
61697;BME280;47610;52.252;20.922;2022-10-19T07:45:32;100620.89;;;12.67;73.75
61697;BME280;47610;52.252;20.922;2022-10-19T07:50:54;100623.58;;;12.75;73.60
61697;BME280;47610;52.252;20.922;2022-10-19T07:56:18;100624.20;;;12.68;73.23
61697;BME280;47610;52.252;20.922;2022-10-19T08:01:39;100630.05;;;12.59;72.56
61697;BME280;47610;52.252;20.922;2022-10-19T08:07:02;100621.58;;;12.51;72.48
61697;BME280;47610;52.252;20.922;2022-10-19T08:12:24;100619.24;;;12.55;72.71
61697;BME280;47610;52.252;20.922;2022-10-19T08:17:46;100622.70;;;12.46;73.17
61697;BME280;47610;52.252;20.922;2022-10-19T08:23:08;100625.30;;;12.29;73.40
61697;BME280;47610;52.252;20.922;2022-10-19T08:28:31;100634.29;;;12.14;74.24
61697;BME280;47610;52.252;20.922;2022-10-19T08:33:54;100634.49;;;12.01;75.33
61697;BME280;47610;52.252;20.922;2022-10-19T08:39:16;100633.05;;;12.01;76.27
61697;BME280;47610;52.252;20.922;2022-10-19T08:50:45;100632.46;;;11.92;77.31
61697;BME280;47610;52.252;20.922;2022-10-19T08:56:22;100631.88;;;11.88;77.55
61697;BME280;47610;52.252;20.922;2022-10-19T09:01:51;100635.29;;;11.89;77.69
61697;BME280;47610;52.252;20.922;2022-10-19T09:07:25;100639.35;;;11.82;77.80
61697;BME280;47610;52.252;20.922;2022-10-19T09:12:55;100644.31;;;11.70;78.37
61697;BME280;47610;52.252;20.922;2022-10-19T09:18:22;100643.60;;;11.62;78.13
61697;BME280;47610;52.252;20.922;2022-10-19T09:23:48;100654.52;;;11.74;78.60
61697;BME280;47610;52.252;20.922;2022-10-19T09:29:19;100661.43;;;11.90;78.74
61697;BME280;47610;52.252;20.922;2022-10-19T09:34:44;100657.10;;;12.12;78.24
61697;BME280;47610;52.252;20.922;2022-10-19T09:40:14;100663.48;;;12.35;77.96
61697;BME280;47610;52.252;20.922;2022-10-19T09:45:41;100669.17;;;12.52;77.43
61697;BME280;47610;52.252;20.922;2022-10-19T09:51:13;100666.88;;;12.95;76.84
61697;BME280;47610;52.252;20.922;2022-10-19T09:56:37;100662.88;;;13.48;75.84
61697;BME280;47610;52.252;20.922;2022-10-19T10:02:15;100673.97;;;13.66;74.34
61697;BME280;47610;52.252;20.922;2022-10-19T10:07:39;100691.75;;;13.37;72.43
61697;BME280;47610;52.252;20.922;2022-10-19T10:13:02;100702.61;;;12.89;70.00
61697;BME280;47610;52.252;20.922;2022-10-19T10:18:26;100706.42;;;12.60;69.32
61697;BME280;47610;52.252;20.922;2022-10-19T10:23:59;100705.02;;;12.35;69.23
61697;BME280;47610;52.252;20.922;2022-10-19T10:29:24;100702.70;;;12.25;69.33
61697;BME280;47610;52.252;20.922;2022-10-19T10:34:54;100706.59;;;12.26;69.40
61697;BME280;47610;52.252;20.922;2022-10-19T10:40:23;100706.67;;;12.29;69.57
61697;BME280;47610;52.252;20.922;2022-10-19T10:45:49;100707.38;;;12.40;68.92
61697;BME280;47610;52.252;20.922;2022-10-19T10:51:22;100700.33;;;12.55;68.94
61697;BME280;47610;52.252;20.922;2022-10-19T10:56:58;100701.52;;;12.58;67.92
61697;BME280;47610;52.252;20.922;2022-10-19T11:02:28;100699.16;;;12.71;67.68
61697;BME280;47610;52.252;20.922;2022-10-19T11:07:54;100702.30;;;13.10;67.84
61697;BME280;47610;52.252;20.922;2022-10-19T11:13:22;100701.45;;;13.23;67.28
61697;BME280;47610;52.252;20.922;2022-10-19T11:18:49;100708.14;;;13.24;67.15
61697;BME280;47610;52.252;20.922;2022-10-19T11:24:20;100702.00;;;13.45;67.13
61697;BME280;47610;52.252;20.922;2022-10-19T11:29:57;100701.63;;;13.73;66.77
61697;BME280;47610;52.252;20.922;2022-10-19T11:35:43;100706.54;;;13.88;65.31
61697;BME280;47610;52.252;20.922;2022-10-19T11:41:15;100704.71;;;13.82;62.70
61697;BME280;47610;52.252;20.922;2022-10-19T11:46:46;100702.74;;;13.64;60.94
61697;BME280;47610;52.252;20.922;2022-10-19T11:52:18;100702.63;;;13.43;60.39
61697;BME280;47610;52.252;20.922;2022-10-19T11:57:49;100708.84;;;13.31;59.86
61697;BME280;47610;52.252;20.922;2022-10-19T12:03:35;100710.77;;;13.18;59.79
61697;BME280;47610;52.252;20.922;2022-10-19T12:09:16;100708.78;;;13.15;59.74
61697;BME280;47610;52.252;20.922;2022-10-19T12:14:44;100717.19;;;13.05;59.43
61697;BME280;47610;52.252;20.922;2022-10-19T12:20:18;100720.70;;;13.00;59.44
61697;BME280;47610;52.252;20.922;2022-10-19T12:25:43;100715.58;;;12.95;58.69
61697;BME280;47610;52.252;20.922;2022-10-19T12:31:07;100721.55;;;12.94;58.62
61697;BME280;47610;52.252;20.922;2022-10-19T12:36:42;100720.27;;;12.93;58.15
61697;BME280;47610;52.252;20.922;2022-10-19T12:42:17;100719.80;;;12.89;57.90
61697;BME280;47610;52.252;20.922;2022-10-19T12:48:21;100720.09;;;12.85;56.87
61697;BME280;47610;52.252;20.922;2022-10-19T12:53:47;100721.74;;;12.86;56.79
61697;BME280;47610;52.252;20.922;2022-10-19T12:59:23;100721.83;;;12.93;56.67
61697;BME280;47610;52.252;20.922;2022-10-19T13:04:52;100725.35;;;12.96;56.06
61697;BME280;47610;52.252;20.922;2022-10-19T13:10:20;100729.63;;;12.94;55.89
61697;BME280;47610;52.252;20.922;2022-10-19T13:15:52;100734.75;;;12.84;55.27
61697;BME280;47610;52.252;20.922;2022-10-19T13:21:43;100739.98;;;12.73;54.93
61697;BME280;47610;52.252;20.922;2022-10-19T13:27:26;100742.58;;;12.72;54.50
61697;BME280;47610;52.252;20.922;2022-10-19T13:32:48;100742.26;;;12.82;54.35
61697;BME280;47610;52.252;20.922;2022-10-19T13:38:27;100751.23;;;12.89;53.90
61697;BME280;47610;52.252;20.922;2022-10-19T13:44:14;100762.29;;;12.94;53.60
61697;BME280;47610;52.252;20.922;2022-10-19T13:56:02;100775.94;;;12.90;54.02
61697;BME280;47610;52.252;20.922;2022-10-19T14:01:40;100783.59;;;12.83;53.51
61697;BME280;47610;52.252;20.922;2022-10-19T14:07:10;100792.79;;;12.76;55.22
61697;BME280;47610;52.252;20.922;2022-10-19T14:12:37;100803.48;;;12.63;56.58
61697;BME280;47610;52.252;20.922;2022-10-19T14:18:01;100819.02;;;12.42;59.14
61697;BME280;47610;52.252;20.922;2022-10-19T14:23:26;100819.74;;;12.12;61.26
61697;BME280;47610;52.252;20.922;2022-10-19T14:28:52;100820.48;;;11.90;62.09
61697;BME280;47610;52.252;20.922;2022-10-19T14:34:14;100830.14;;;11.74;63.11
61697;BME280;47610;52.252;20.922;2022-10-19T14:39:36;100832.91;;;11.58;63.53
61697;BME280;47610;52.252;20.922;2022-10-19T14:45:01;100839.61;;;11.34;63.50
61697;BME280;47610;52.252;20.922;2022-10-19T14:50:29;100835.84;;;11.15;63.23
61697;BME280;47610;52.252;20.922;2022-10-19T14:55:55;100841.71;;;11.00;63.35
61697;BME280;47610;52.252;20.922;2022-10-19T15:01:19;100857.34;;;10.88;63.80
61697;BME280;47610;52.252;20.922;2022-10-19T15:06:42;100857.67;;;10.71;63.35
61697;BME280;47610;52.252;20.922;2022-10-19T15:12:06;100854.08;;;10.53;62.36
61697;BME280;47610;52.252;20.922;2022-10-19T15:17:28;100860.86;;;10.35;62.22
61697;BME280;47610;52.252;20.922;2022-10-19T15:22:50;100865.34;;;10.21;62.09
61697;BME280;47610;52.252;20.922;2022-10-19T15:28:33;100874.12;;;10.07;61.83
61697;BME280;47610;52.252;20.922;2022-10-19T15:33:56;100887.69;;;10.00;61.93
61697;BME280;47610;52.252;20.922;2022-10-19T15:39:29;100885.27;;;9.95;61.76
61697;BME280;47610;52.252;20.922;2022-10-19T15:44:52;100890.64;;;9.87;61.59
61697;BME280;47610;52.252;20.922;2022-10-19T15:50:31;100899.45;;;9.73;61.55
61697;BME280;47610;52.252;20.922;2022-10-19T15:55:58;100915.44;;;9.59;61.32
61697;BME280;47610;52.252;20.922;2022-10-19T16:01:21;100924.65;;;9.48;61.09
61697;BME280;47610;52.252;20.922;2022-10-19T16:06:45;100928.64;;;9.38;61.35
61697;BME280;47610;52.252;20.922;2022-10-19T16:12:07;100937.45;;;9.28;61.46
61697;BME280;47610;52.252;20.922;2022-10-19T16:17:30;100942.48;;;9.15;61.73
61697;BME280;47610;52.252;20.922;2022-10-19T16:22:53;100954.96;;;9.04;62.00
61697;BME280;47610;52.252;20.922;2022-10-19T16:28:15;100962.67;;;8.98;62.37
61697;BME280;47610;52.252;20.922;2022-10-19T16:33:37;100965.64;;;8.91;62.41
61697;BME280;47610;52.252;20.922;2022-10-19T16:39:01;100967.86;;;8.82;62.84
61697;BME280;47610;52.252;20.922;2022-10-19T16:44:23;100970.90;;;8.77;62.90
61697;BME280;47610;52.252;20.922;2022-10-19T16:49:44;100972.23;;;8.71;63.26
61697;BME280;47610;52.252;20.922;2022-10-19T16:55:08;100981.12;;;8.65;63.44
61697;BME280;47610;52.252;20.922;2022-10-19T17:00:30;100987.27;;;8.56;63.72
61697;BME280;47610;52.252;20.922;2022-10-19T17:05:52;100993.52;;;8.51;63.69
61697;BME280;47610;52.252;20.922;2022-10-19T17:11:15;101000.61;;;8.47;63.65
61697;BME280;47610;52.252;20.922;2022-10-19T17:16:38;101010.08;;;8.51;64.09
61697;BME280;47610;52.252;20.922;2022-10-19T17:22:00;101013.33;;;8.52;63.98
61697;BME280;47610;52.252;20.922;2022-10-19T17:27:22;101019.84;;;8.46;63.97
61697;BME280;47610;52.252;20.922;2022-10-19T17:32:44;101028.85;;;8.42;64.18
61697;BME280;47610;52.252;20.922;2022-10-19T17:38:06;101037.20;;;8.36;64.20
61697;BME280;47610;52.252;20.922;2022-10-19T17:43:27;101037.98;;;8.25;64.24
61697;BME280;47610;52.252;20.922;2022-10-19T17:48:49;101046.68;;;8.24;64.26
61697;BME280;47610;52.252;20.922;2022-10-19T17:54:13;101052.22;;;8.16;64.37
61697;BME280;47610;52.252;20.922;2022-10-19T17:59:36;101054.54;;;8.11;64.53
61697;BME280;47610;52.252;20.922;2022-10-19T18:04:58;101054.73;;;8.10;64.66
61697;BME280;47610;52.252;20.922;2022-10-19T18:10:20;101061.01;;;8.02;64.54
61697;BME280;47610;52.252;20.922;2022-10-19T18:15:42;101064.40;;;7.95;64.45
61697;BME280;47610;52.252;20.922;2022-10-19T18:21:07;101070.59;;;7.89;64.60
61697;BME280;47610;52.252;20.922;2022-10-19T18:26:31;101068.58;;;7.82;65.06
61697;BME280;47610;52.252;20.922;2022-10-19T18:31:54;101062.80;;;7.75;64.98
61697;BME280;47610;52.252;20.922;2022-10-19T18:37:15;101059.20;;;7.65;65.07
61697;BME280;47610;52.252;20.922;2022-10-19T18:42:37;101062.20;;;7.57;65.53
61697;BME280;47610;52.252;20.922;2022-10-19T18:48:00;101076.20;;;7.51;65.80
61697;BME280;47610;52.252;20.922;2022-10-19T18:53:22;101081.67;;;7.47;65.99
61697;BME280;47610;52.252;20.922;2022-10-19T18:58:45;101082.01;;;7.42;66.16
61697;BME280;47610;52.252;20.922;2022-10-19T19:04:09;101081.77;;;7.34;66.31
61697;BME280;47610;52.252;20.922;2022-10-19T19:09:34;101085.83;;;7.28;66.45
61697;BME280;47610;52.252;20.922;2022-10-19T19:14:56;101090.75;;;7.23;66.79
61697;BME280;47610;52.252;20.922;2022-10-19T19:20:18;101101.38;;;7.14;67.08
61697;BME280;47610;52.252;20.922;2022-10-19T19:25:41;101107.21;;;7.11;67.04
61697;BME280;47610;52.252;20.922;2022-10-19T19:31:05;101114.96;;;7.08;67.63
61697;BME280;47610;52.252;20.922;2022-10-19T19:36:27;101119.76;;;7.03;67.62
61697;BME280;47610;52.252;20.922;2022-10-19T19:41:50;101126.60;;;6.96;67.52
61697;BME280;47610;52.252;20.922;2022-10-19T19:47:13;101133.08;;;6.91;67.74
61697;BME280;47610;52.252;20.922;2022-10-19T19:52:34;101144.24;;;6.85;67.90
61697;BME280;47610;52.252;20.922;2022-10-19T19:57:56;101152.11;;;6.80;68.25
61697;BME280;47610;52.252;20.922;2022-10-19T20:03:18;101157.42;;;6.75;68.43
61697;BME280;47610;52.252;20.922;2022-10-19T20:08:42;101161.41;;;6.70;68.84
61697;BME280;47610;52.252;20.922;2022-10-19T20:14:04;101169.45;;;6.66;68.73
61697;BME280;47610;52.252;20.922;2022-10-19T20:19:26;101173.77;;;6.62;68.98
61697;BME280;47610;52.252;20.922;2022-10-19T20:24:48;101179.51;;;6.60;69.14
61697;BME280;47610;52.252;20.922;2022-10-19T20:30:12;101188.02;;;6.55;69.29
61697;BME280;47610;52.252;20.922;2022-10-19T20:35:36;101192.39;;;6.49;69.67
61697;BME280;47610;52.252;20.922;2022-10-19T20:40:58;101197.94;;;6.46;69.76
61697;BME280;47610;52.252;20.922;2022-10-19T20:46:22;101203.60;;;6.44;70.10
61697;BME280;47610;52.252;20.922;2022-10-19T20:51:44;101200.36;;;6.40;69.98
61697;BME280;47610;52.252;20.922;2022-10-19T20:57:06;101203.25;;;6.38;70.26
61697;BME280;47610;52.252;20.922;2022-10-19T21:02:28;101205.32;;;6.37;70.41
61697;BME280;47610;52.252;20.922;2022-10-19T21:07:50;101206.61;;;6.31;70.74
61697;BME280;47610;52.252;20.922;2022-10-19T21:13:13;101214.29;;;6.26;70.73
61697;BME280;47610;52.252;20.922;2022-10-19T21:18:35;101219.74;;;6.22;71.03
61697;BME280;47610;52.252;20.922;2022-10-19T21:24:00;101219.05;;;6.19;71.19
61697;BME280;47610;52.252;20.922;2022-10-19T21:29:24;101221.86;;;6.16;71.20
61697;BME280;47610;52.252;20.922;2022-10-19T21:34:47;101226.04;;;6.15;71.33
61697;BME280;47610;52.252;20.922;2022-10-19T21:40:11;101220.48;;;6.12;71.51
61697;BME280;47610;52.252;20.922;2022-10-19T21:45:38;101219.25;;;6.08;71.65
61697;BME280;47610;52.252;20.922;2022-10-19T21:51:04;101220.41;;;6.07;71.84
61697;BME280;47610;52.252;20.922;2022-10-19T21:56:32;101217.80;;;6.02;71.80
61697;BME280;47610;52.252;20.922;2022-10-19T22:01:55;101217.65;;;5.97;71.85
61697;BME280;47610;52.252;20.922;2022-10-19T22:07:19;101216.90;;;5.93;72.07
61697;BME280;47610;52.252;20.922;2022-10-19T22:12:41;101226.39;;;5.88;72.20
61697;BME280;47610;52.252;20.922;2022-10-19T22:18:03;101228.26;;;5.86;72.29
61697;BME280;47610;52.252;20.922;2022-10-19T22:23:25;101228.83;;;5.83;72.30
61697;BME280;47610;52.252;20.922;2022-10-19T22:28:48;101233.22;;;5.81;72.40
61697;BME280;47610;52.252;20.922;2022-10-19T22:34:12;101230.71;;;5.74;72.38
61697;BME280;47610;52.252;20.922;2022-10-19T22:39:35;101235.79;;;5.70;72.62
61697;BME280;47610;52.252;20.922;2022-10-19T22:44:57;101241.77;;;5.63;72.62
61697;BME280;47610;52.252;20.922;2022-10-19T22:50:21;101245.63;;;5.58;72.60
61697;BME280;47610;52.252;20.922;2022-10-19T22:55:43;101246.45;;;5.55;72.92
61697;BME280;47610;52.252;20.922;2022-10-19T23:01:09;101250.05;;;5.52;73.03
61697;BME280;47610;52.252;20.922;2022-10-19T23:06:32;101255.52;;;5.49;72.85
61697;BME280;47610;52.252;20.922;2022-10-19T23:11:55;101266.92;;;5.42;72.96
61697;BME280;47610;52.252;20.922;2022-10-19T23:17:20;101264.20;;;5.34;73.05
61697;BME280;47610;52.252;20.922;2022-10-19T23:22:43;101268.73;;;5.28;73.23
61697;BME280;47610;52.252;20.922;2022-10-19T23:28:06;101275.36;;;5.26;73.14
61697;BME280;47610;52.252;20.922;2022-10-19T23:33:29;101283.74;;;5.25;73.17
61697;BME280;47610;52.252;20.922;2022-10-19T23:38:53;101287.31;;;5.22;73.14
61697;BME280;47610;52.252;20.922;2022-10-19T23:44:15;101300.02;;;5.19;73.33
61697;BME280;47610;52.252;20.922;2022-10-19T23:49:38;101303.86;;;5.14;73.40
61697;BME280;47610;52.252;20.922;2022-10-19T23:55:01;101310.81;;;5.08;73.43
